createdAt,value
2022-08-12T00:02:04.076Z,20.96
2022-08-12T00:07:26.062Z,21.02
2022-08-12T00:12:46.403Z,20.91
2022-08-12T00:18:08.294Z,20.82
2022-08-12T00:23:31.283Z,20.27
2022-08-12T00:28:53.105Z,20.40
2022-08-12T00:34:16.514Z,20.53
2022-08-12T00:39:38.581Z,20.45
2022-08-12T00:44:43.337Z,20.48
2022-08-12T00:49:50.123Z,20.49
2022-08-12T00:54:56.969Z,20.23
2022-08-12T01:00:01.835Z,20.17
2022-08-12T01:05:27.441Z,20.22
2022-08-12T01:10:49.279Z,20.22
2022-08-12T01:15:54.424Z,20.29
2022-08-12T01:21:11.867Z,20.22
2022-08-12T01:26:19.225Z,20.25
2022-08-12T01:31:23.138Z,20.27
2022-08-12T01:36:27.981Z,20.17
2022-08-12T01:41:33.292Z,20.13
2022-08-12T01:46:44.953Z,20.04
2022-08-12T01:52:14.690Z,19.86
2022-08-12T01:57:58.194Z,19.41
2022-08-12T02:03:05.063Z,19.20
2022-08-12T02:08:36.305Z,19.37
2022-08-12T02:14:17.046Z,19.34
2022-08-12T02:19:39.076Z,19.11
2022-08-12T02:24:43.317Z,18.91
2022-08-12T02:29:48.185Z,18.85
2022-08-12T02:34:51.168Z,18.61
2022-08-12T02:39:56.474Z,17.97
2022-08-12T02:45:06.483Z,18.08
2022-08-12T02:50:11.968Z,18.22
2022-08-12T02:55:34.382Z,18.32
2022-08-12T03:00:39.398Z,18.23
2022-08-12T03:05:49.671Z,18.22
2022-08-12T03:11:00.427Z,18.05
2022-08-12T03:16:07.631Z,18.06
2022-08-12T03:21:13.446Z,17.99
2022-08-12T03:26:16.296Z,17.98
2022-08-12T03:31:22.917Z,17.94
2022-08-12T03:36:28.993Z,18.09
2022-08-12T03:41:35.518Z,18.01
2022-08-12T03:47:00.386Z,18.16
2022-08-12T03:52:21.796Z,18.15
2022-08-12T03:57:42.440Z,18.27
2022-08-12T04:03:00.594Z,18.51
2022-08-12T04:08:03.769Z,18.46
2022-08-12T04:13:19.719Z,18.15
2022-08-12T04:18:24.305Z,17.99
2022-08-12T04:23:27.584Z,18.05
2022-08-12T04:28:30.440Z,18.15
2022-08-12T04:33:35.637Z,18.27
2022-08-12T04:38:39.297Z,18.25
2022-08-12T04:43:54.535Z,18.22
2022-08-12T04:49:06.579Z,18.14
2022-08-12T04:54:09.415Z,17.28
2022-08-12T04:59:12.512Z,17.30
2022-08-12T05:04:17.088Z,17.34
2022-08-12T05:09:20.479Z,17.71
2022-08-12T05:14:24.890Z,17.53
2022-08-12T05:19:30.335Z,17.75
2022-08-12T05:24:33.429Z,18.06
2022-08-12T05:30:06.407Z,18.33
2022-08-12T05:35:06.740Z,18.64
2022-08-12T05:40:11.810Z,18.64
2022-08-12T05:45:14.653Z,18.69
2022-08-12T05:50:19.384Z,18.94
2022-08-12T05:55:24.201Z,19.04
2022-08-12T06:00:31.502Z,19.15
2022-08-12T06:05:43.038Z,19.37
2022-08-12T06:10:57.666Z,19.46
2022-08-12T06:16:00.464Z,19.68
2022-08-12T06:21:04.848Z,19.91
2022-08-12T06:26:12.713Z,20.16
2022-08-12T06:31:26.894Z,20.37
2022-08-12T06:36:33.357Z,20.60
2022-08-12T06:42:28.547Z,20.93
2022-08-12T06:47:18.538Z,21.26
2022-08-12T06:52:24.805Z,21.63
2022-08-12T06:58:08.043Z,21.94
2022-08-12T07:02:51.650Z,22.11
2022-08-12T07:08:15.555Z,22.50
2022-08-12T07:13:18.366Z,22.79
2022-08-12T07:18:21.217Z,23.24
2022-08-12T07:23:25.553Z,23.52
2022-08-12T07:28:30.936Z,23.93
2022-08-12T07:33:33.724Z,24.30
2022-08-12T07:38:40.091Z,24.69
2022-08-12T07:43:47.250Z,25.00
2022-08-12T07:48:51.910Z,25.54
2022-08-12T07:54:00.963Z,25.70
2022-08-12T07:59:08.781Z,25.98
2022-08-12T08:04:29.296Z,26.27
2022-08-12T08:09:33.529Z,26.57
2022-08-12T08:14:36.921Z,26.85
2022-08-12T08:20:03.016Z,27.04
2022-08-12T08:25:05.401Z,27.42
2022-08-12T08:30:29.604Z,27.73
2022-08-12T08:35:47.041Z,27.83
2022-08-12T08:41:09.637Z,27.99
2022-08-12T08:46:14.422Z,28.46
2022-08-12T08:51:17.255Z,28.61
2022-08-12T08:56:21.720Z,28.92
2022-08-12T09:01:24.788Z,29.32
2022-08-12T09:06:37.076Z,29.27
2022-08-12T09:12:11.889Z,29.60
2022-08-12T09:17:21.279Z,29.70
2022-08-12T09:22:28.587Z,30.32
2022-08-12T09:28:15.597Z,30.08
2022-08-12T09:33:05.510Z,30.56
2022-08-12T09:38:28.152Z,30.21
2022-08-12T09:44:00.651Z,30.87
2022-08-12T09:49:16.327Z,31.32
2022-08-12T09:54:34.086Z,31.28
2022-08-12T10:00:15.015Z,31.37
2022-08-12T10:05:02.186Z,31.72
2022-08-12T10:10:05.420Z,31.49
2022-08-12T10:15:15.093Z,31.82
2022-08-12T10:20:35.712Z,31.72
2022-08-12T10:26:33.944Z,32.14
2022-08-12T10:31:21.761Z,31.94
2022-08-12T10:36:40.870Z,32.09
2022-08-12T10:42:04.551Z,31.95
2022-08-12T10:47:26.040Z,32.76
2022-08-12T10:52:38.191Z,33.56
2022-08-12T10:58:12.914Z,33.68
2022-08-12T11:04:24.685Z,34.05
2022-08-12T11:08:34.897Z,33.93
2022-08-12T11:13:48.353Z,33.25
2022-08-12T11:18:55.081Z,34.42
2022-08-12T11:23:59.001Z,34.62
2022-08-12T11:29:05.601Z,34.20
2022-08-12T11:34:51.330Z,34.68
2022-08-12T11:40:03.422Z,34.82
2022-08-12T11:44:55.909Z,34.83
2022-08-12T11:50:00.333Z,34.34
2022-08-12T11:55:04.491Z,35.10
2022-08-12T12:02:00.814Z,36.41
2022-08-12T12:05:41.659Z,36.48
2022-08-12T12:10:44.919Z,36.67
2022-08-12T12:15:49.368Z,36.74
2022-08-12T12:21:00.072Z,35.70
2022-08-12T12:26:08.281Z,35.92
2022-08-12T12:31:15.097Z,35.09
2022-08-12T12:36:36.787Z,36.05
2022-08-12T12:42:43.379Z,36.34
2022-08-12T12:47:02.401Z,36.35
2022-08-12T12:52:18.556Z,35.51
2022-08-12T12:57:36.116Z,36.77
2022-08-12T13:02:55.433Z,36.27
2022-08-12T13:08:01.920Z,36.30
2022-08-12T13:14:07.277Z,36.13
2022-08-12T13:18:31.468Z,35.91
2022-08-12T13:23:37.694Z,35.65
2022-08-12T13:28:43.046Z,36.57
2022-08-12T13:34:33.655Z,36.88
2022-08-12T13:39:10.915Z,35.90
2022-08-12T13:44:14.074Z,36.07
2022-08-12T13:49:17.715Z,35.88
2022-08-12T13:54:41.138Z,36.18
2022-08-12T13:59:48.580Z,36.56
2022-08-12T14:04:58.146Z,35.29
2022-08-12T14:10:19.604Z,35.51
2022-08-12T14:15:36.640Z,36.50
2022-08-12T14:20:40.761Z,37.09
2022-08-12T14:25:51.413Z,36.17
2022-08-12T14:31:00.236Z,35.93
2022-08-12T14:36:06.773Z,36.20
2022-08-12T14:41:14.717Z,35.71
2022-08-12T14:46:19.627Z,35.08
2022-08-12T14:52:54.965Z,35.69
2022-08-12T14:57:20.157Z,36.30
2022-08-12T15:02:20.623Z,36.44
2022-08-12T15:07:33.568Z,36.00
2022-08-12T15:12:50.472Z,35.75
2022-08-12T15:18:02.310Z,35.77
2022-08-12T15:23:05.888Z,35.58
2022-08-12T15:28:24.887Z,34.88
2022-08-12T15:33:37.866Z,35.40
2022-08-12T15:38:48.982Z,34.98
2022-08-12T15:44:37.121Z,35.15
2022-08-12T15:49:19.884Z,34.72
2022-08-12T15:54:33.611Z,34.96
2022-08-12T16:00:00.694Z,34.85
2022-08-12T16:05:03.315Z,34.16
2022-08-12T16:10:30.768Z,34.10
2022-08-12T16:15:37.806Z,33.80
2022-08-12T16:20:46.903Z,33.62
2022-08-12T16:26:05.222Z,33.91
2022-08-12T16:31:14.360Z,33.79
2022-08-12T16:36:18.988Z,34.25
2022-08-12T16:41:23.527Z,33.65
2022-08-12T16:46:32.674Z,33.20
2022-08-12T16:51:40.197Z,33.47
2022-08-12T16:56:51.205Z,33.61
2022-08-12T17:02:02.408Z,33.32
2022-08-12T17:07:10.071Z,33.26
2022-08-12T17:12:17.011Z,33.06
2022-08-12T17:17:38.630Z,33.59
2022-08-12T17:22:42.906Z,36.32
2022-08-12T17:27:57.239Z,36.13
2022-08-12T17:33:02.898Z,34.86
2022-08-12T17:38:13.654Z,35.40
2022-08-12T17:43:57.455Z,36.18
2022-08-12T17:48:55.510Z,34.64
2022-08-12T17:54:11.377Z,32.00
2022-08-12T17:59:47.204Z,30.76
2022-08-12T18:05:05.417Z,29.74
2022-08-12T18:10:08.504Z,29.40
2022-08-12T18:15:26.681Z,29.06
2022-08-12T18:20:44.630Z,28.75
2022-08-12T18:26:14.962Z,28.42
2022-08-12T18:31:23.261Z,28.16
2022-08-12T18:36:29.177Z,27.94
2022-08-12T18:41:35.091Z,27.77
2022-08-12T18:46:48.905Z,27.50
2022-08-12T18:52:04.498Z,27.23
2022-08-12T18:57:16.532Z,27.05
2022-08-12T19:02:23.394Z,26.88
2022-08-12T19:07:29.708Z,26.72
2022-08-12T19:13:09.421Z,26.55
2022-08-12T19:18:13.558Z,26.39
2022-08-12T19:23:20.942Z,26.22
2022-08-12T19:28:29.960Z,26.09
2022-08-12T19:33:37.368Z,25.92
2022-08-12T19:38:46.940Z,25.83
2022-08-12T19:44:18.467Z,25.75
2022-08-12T19:49:23.382Z,25.68
2022-08-12T19:54:30.423Z,25.65
2022-08-12T19:59:43.297Z,25.48
2022-08-12T20:06:03.576Z,25.45
2022-08-12T20:10:36.209Z,25.33
2022-08-12T20:15:43.235Z,25.26
2022-08-12T20:20:48.122Z,25.18
2022-08-12T20:26:01.879Z,24.96
2022-08-12T20:31:07.094Z,24.84
2022-08-12T20:36:39.977Z,24.72
2022-08-12T20:41:36.794Z,24.63
2022-08-12T20:46:39.703Z,24.54
2022-08-12T20:51:55.424Z,24.43
2022-08-12T20:57:00.982Z,24.30
2022-08-12T21:02:04.710Z,24.17
2022-08-12T21:07:10.348Z,24.13
2022-08-12T21:12:28.222Z,24.00
2022-08-12T21:18:00.700Z,23.85
2022-08-12T21:23:05.723Z,23.78
2022-08-12T21:28:10.344Z,23.70
2022-08-12T21:33:16.955Z,23.53
2022-08-12T21:38:19.921Z,23.48
2022-08-12T21:43:29.069Z,23.44
2022-08-12T21:48:48.350Z,23.41
2022-08-12T21:54:07.583Z,23.30
2022-08-12T21:59:14.734Z,23.23
2022-08-12T22:04:35.960Z,23.12
2022-08-12T22:09:42.857Z,23.07
2022-08-12T22:14:47.800Z,22.98
2022-08-12T22:19:50.771Z,22.92
2022-08-12T22:24:53.798Z,22.77
2022-08-12T22:30:20.397Z,22.72
2022-08-12T22:35:56.663Z,22.61
2022-08-12T22:40:58.363Z,22.62
2022-08-12T22:46:23.516Z,22.50
2022-08-12T22:52:00.606Z,22.53
2022-08-12T22:56:57.748Z,22.32
2022-08-12T23:02:07.583Z,22.34
2022-08-12T23:07:14.317Z,22.31
2022-08-12T23:12:46.565Z,22.25
2022-08-12T23:17:51.251Z,22.23
2022-08-12T23:23:02.899Z,22.17
2022-08-12T23:28:30.955Z,22.08
2022-08-12T23:33:59.965Z,21.97
2022-08-12T23:39:02.007Z,21.87
2022-08-12T23:44:07.007Z,21.85
2022-08-12T23:49:26.765Z,21.74
2022-08-12T23:54:43.985Z,21.66
2022-08-12T23:59:55.689Z,21.59
